createdAt,value
2023-07-30T00:00:14.533Z,65.90
2023-07-30T00:02:41.630Z,66.00
2023-07-30T00:05:08.865Z,66.30
2023-07-30T00:07:36.036Z,66.40
2023-07-30T00:10:03.116Z,66.40
2023-07-30T00:12:30.218Z,66.40
2023-07-30T00:14:57.559Z,66.70
2023-07-30T00:17:24.497Z,67.00
2023-07-30T00:19:51.576Z,67.10
2023-07-30T00:22:22.262Z,67.20
2023-07-30T00:24:50.876Z,67.30
2023-07-30T00:27:17.768Z,67.50
2023-07-30T00:29:44.743Z,67.70
2023-07-30T00:32:12.383Z,67.90
2023-07-30T00:34:39.548Z,68.10
2023-07-30T00:37:06.841Z,68.20
2023-07-30T00:39:33.846Z,68.20
2023-07-30T00:42:00.829Z,68.50
2023-07-30T00:44:28.165Z,68.50
2023-07-30T00:46:55.274Z,68.70
2023-07-30T00:49:22.248Z,68.80
2023-07-30T00:51:49.352Z,69.00
2023-07-30T00:54:16.552Z,69.00
2023-07-30T00:56:51.645Z,69.20
2023-07-30T00:59:18.875Z,69.40
2023-07-30T01:01:48.394Z,69.30
2023-07-30T01:04:18.680Z,69.40
2023-07-30T01:06:45.925Z,69.50
2023-07-30T01:09:13.526Z,69.60
2023-07-30T01:11:44.256Z,69.70
2023-07-30T01:14:11.851Z,69.80
2023-07-30T01:16:39.106Z,69.90
2023-07-30T01:19:07.579Z,70.00
2023-07-30T01:21:36.780Z,70.00
2023-07-30T01:24:05.046Z,70.30
2023-07-30T01:26:38.730Z,70.40
2023-07-30T01:29:10.086Z,70.50
2023-07-30T01:31:40.409Z,70.50
2023-07-30T01:34:10.730Z,70.50
2023-07-30T01:36:39.811Z,70.50
2023-07-30T01:39:08.013Z,70.60
2023-07-30T01:41:35.719Z,70.80
2023-07-30T01:44:03.317Z,70.90
2023-07-30T01:46:31.161Z,71.10
2023-07-30T01:48:58.625Z,71.20
2023-07-30T01:51:25.593Z,71.40
2023-07-30T01:53:52.833Z,71.50
2023-07-30T01:56:19.942Z,71.60
2023-07-30T01:58:46.993Z,71.80
2023-07-30T02:01:14.022Z,71.90
2023-07-30T02:03:41.305Z,71.90
2023-07-30T02:06:08.560Z,72.00
2023-07-30T02:08:35.527Z,72.10
2023-07-30T02:11:02.638Z,72.10
2023-07-30T02:13:30.155Z,72.10
2023-07-30T02:15:57.241Z,72.20
2023-07-30T02:18:24.214Z,72.20
2023-07-30T02:20:51.289Z,72.30
2023-07-30T02:23:18.902Z,72.40
2023-07-30T02:25:46.417Z,72.60
2023-07-30T02:28:15.495Z,72.80
2023-07-30T02:30:42.709Z,73.00
2023-07-30T02:33:09.750Z,73.10
2023-07-30T02:35:36.850Z,73.20
2023-07-30T02:38:04.760Z,73.40
2023-07-30T02:40:32.645Z,73.50
2023-07-30T02:43:00.197Z,73.70
2023-07-30T02:45:27.703Z,73.80
2023-07-30T02:47:55.214Z,73.80
2023-07-30T02:50:22.220Z,74.10
2023-07-30T02:52:49.368Z,74.10
2023-07-30T02:55:17.441Z,74.30
2023-07-30T02:57:44.578Z,74.40
2023-07-30T03:00:12.367Z,74.60
2023-07-30T03:02:39.404Z,74.70
2023-07-30T03:05:06.921Z,74.90
2023-07-30T03:07:34.096Z,75.00
2023-07-30T03:10:01.113Z,75.00
2023-07-30T03:12:28.263Z,75.10
2023-07-30T03:14:55.244Z,75.20
2023-07-30T03:17:22.691Z,75.30
2023-07-30T03:19:49.652Z,75.30
2023-07-30T03:22:18.246Z,75.50
2023-07-30T03:24:48.452Z,75.50
2023-07-30T03:27:15.419Z,75.60
2023-07-30T03:29:42.530Z,75.70
2023-07-30T03:32:09.663Z,75.80
2023-07-30T03:34:37.610Z,75.80
2023-07-30T03:37:04.882Z,76.00
2023-07-30T03:39:32.015Z,76.20
2023-07-30T03:41:59.131Z,76.30
2023-07-30T03:44:26.096Z,76.60
2023-07-30T03:46:53.065Z,76.70
2023-07-30T03:49:20.017Z,77.00
2023-07-30T03:51:47.468Z,77.10
2023-07-30T03:54:14.636Z,77.20
2023-07-30T03:56:41.738Z,77.30
2023-07-30T03:59:09.176Z,77.40
2023-07-30T04:01:36.508Z,77.60
2023-07-30T04:04:04.138Z,77.60
2023-07-30T04:06:31.118Z,77.70
2023-07-30T04:08:58.038Z,77.90
2023-07-30T04:11:26.190Z,78.00
2023-07-30T04:13:53.318Z,78.00
2023-07-30T04:16:20.674Z,78.10
2023-07-30T04:18:47.826Z,79.00
2023-07-30T04:21:15.024Z,78.10
2023-07-30T04:23:42.360Z,78.10
2023-07-30T04:26:09.644Z,78.30
2023-07-30T04:28:37.010Z,78.30
2023-07-30T04:31:04.371Z,78.30
2023-07-30T04:33:31.603Z,78.40
2023-07-30T04:35:58.785Z,78.40
2023-07-30T04:38:26.229Z,78.50
2023-07-30T04:40:53.466Z,78.60
2023-07-30T04:43:20.537Z,78.70
2023-07-30T04:45:53.115Z,78.60
2023-07-30T04:48:20.409Z,78.80
2023-07-30T04:50:47.443Z,78.80
2023-07-30T04:53:14.418Z,78.90
2023-07-30T04:55:41.345Z,78.90
2023-07-30T04:58:08.496Z,78.90
2023-07-30T05:00:36.089Z,79.10
2023-07-30T05:03:03.148Z,79.20
2023-07-30T05:05:30.359Z,79.20
2023-07-30T05:07:58.129Z,79.00
2023-07-30T05:10:25.315Z,78.90
2023-07-30T05:12:52.328Z,79.00
2023-07-30T05:15:19.490Z,78.90
2023-07-30T05:17:46.398Z,78.90
2023-07-30T05:20:13.539Z,79.00
2023-07-30T05:22:40.875Z,78.70
2023-07-30T05:25:08.430Z,78.60
2023-07-30T05:27:36.825Z,78.60
2023-07-30T05:30:04.069Z,78.50
2023-07-30T05:32:31.012Z,78.30
2023-07-30T05:34:58.246Z,78.20
2023-07-30T05:37:25.235Z,78.20
2023-07-30T05:39:52.166Z,78.10
2023-07-30T05:42:19.409Z,78.20
2023-07-30T05:44:46.539Z,78.30
2023-07-30T05:47:13.459Z,78.40
2023-07-30T05:49:40.539Z,78.20
2023-07-30T05:52:07.552Z,78.30
2023-07-30T05:54:34.477Z,78.40
2023-07-30T05:57:01.495Z,78.60
2023-07-30T05:59:28.439Z,78.60
2023-07-30T06:01:58.545Z,78.70
2023-07-30T06:04:25.711Z,78.70
2023-07-30T06:06:52.710Z,78.70
2023-07-30T06:09:19.719Z,78.50
2023-07-30T06:11:46.757Z,78.30
2023-07-30T06:14:13.610Z,78.30
2023-07-30T06:16:41.049Z,78.40
2023-07-30T06:19:08.103Z,78.30
2023-07-30T06:21:35.070Z,78.10
2023-07-30T06:24:02.051Z,77.90
2023-07-30T06:26:29.068Z,77.90
2023-07-30T06:28:56.283Z,77.80
2023-07-30T06:31:23.273Z,77.70
2023-07-30T06:33:50.659Z,77.70
2023-07-30T06:36:17.654Z,77.50
2023-07-30T06:38:44.731Z,77.70
2023-07-30T06:41:11.889Z,77.50
2023-07-30T06:43:39.039Z,77.30
2023-07-30T06:46:06.205Z,77.00
2023-07-30T06:48:33.356Z,77.10
2023-07-30T06:51:00.457Z,76.90
2023-07-30T06:53:27.569Z,76.80
2023-07-30T06:55:54.537Z,77.10
2023-07-30T06:58:21.570Z,75.60
2023-07-30T07:00:48.593Z,75.50
2023-07-30T07:03:15.775Z,75.40
2023-07-30T07:05:45.277Z,75.40
2023-07-30T07:08:12.510Z,75.60
2023-07-30T07:10:39.686Z,75.80
2023-07-30T07:13:06.668Z,75.70
2023-07-30T07:15:33.696Z,75.50
2023-07-30T07:18:00.896Z,75.50
2023-07-30T07:20:28.763Z,75.60
2023-07-30T07:22:55.642Z,75.90
2023-07-30T07:25:23.051Z,75.70
2023-07-30T07:27:50.091Z,75.60
2023-07-30T07:30:17.211Z,75.60
2023-07-30T07:32:44.804Z,75.40
2023-07-30T07:35:11.660Z,75.40
2023-07-30T07:37:38.683Z,75.20
2023-07-30T07:40:06.316Z,75.40
2023-07-30T07:42:33.329Z,75.60
2023-07-30T07:45:00.247Z,76.10
2023-07-30T07:47:27.719Z,75.50
2023-07-30T07:49:55.168Z,75.30
2023-07-30T07:52:22.131Z,75.20
2023-07-30T07:54:49.243Z,74.50
2023-07-30T07:57:16.218Z,74.30
2023-07-30T07:59:46.293Z,74.30
2023-07-30T08:02:13.790Z,74.10
2023-07-30T08:04:41.195Z,74.10
2023-07-30T08:07:08.566Z,73.20
2023-07-30T08:09:35.624Z,72.70
2023-07-30T08:12:02.609Z,71.30
2023-07-30T08:14:31.517Z,69.90
2023-07-30T08:16:58.549Z,68.50
2023-07-30T08:19:25.506Z,68.20
2023-07-30T08:21:52.614Z,67.70
2023-07-30T08:24:19.477Z,67.70
2023-07-30T08:26:48.104Z,68.00
2023-07-30T08:29:15.521Z,68.00
2023-07-30T08:31:43.300Z,68.20
2023-07-30T08:34:10.367Z,68.70
2023-07-30T08:36:37.619Z,67.20
2023-07-30T08:39:05.504Z,66.60
2023-07-30T08:41:33.263Z,67.30
2023-07-30T08:44:00.556Z,66.60
2023-07-30T08:46:28.698Z,66.40
2023-07-30T08:48:58.969Z,66.60
2023-07-30T08:51:27.522Z,66.70
2023-07-30T08:53:55.579Z,66.40
2023-07-30T08:56:22.879Z,67.80
2023-07-30T08:58:52.437Z,66.50
2023-07-30T09:01:19.965Z,65.70
2023-07-30T09:03:50.893Z,66.10
2023-07-30T09:06:18.059Z,65.20
2023-07-30T09:08:45.513Z,65.50
2023-07-30T09:11:12.953Z,64.90
2023-07-30T09:13:41.818Z,64.30
2023-07-30T09:16:13.513Z,64.20
2023-07-30T09:18:45.016Z,64.40
2023-07-30T09:21:13.117Z,63.40
2023-07-30T09:23:45.317Z,64.00
2023-07-30T09:26:13.005Z,63.70
2023-07-30T09:28:41.232Z,63.80
2023-07-30T09:31:21.548Z,63.50
2023-07-30T09:33:49.581Z,63.70
2023-07-30T09:36:19.963Z,63.80
2023-07-30T09:38:48.496Z,63.90
2023-07-30T09:41:16.103Z,63.70
2023-07-30T09:43:43.251Z,63.30
2023-07-30T09:46:10.830Z,62.90
2023-07-30T09:48:38.168Z,62.30
2023-07-30T09:51:07.070Z,62.20
2023-07-30T09:53:36.385Z,62.30
2023-07-30T09:56:09.789Z,60.30
2023-07-30T09:58:39.293Z,59.30
2023-07-30T10:01:07.287Z,58.10
2023-07-30T10:03:36.729Z,57.20
2023-07-30T10:06:05.191Z,57.40
2023-07-30T10:08:37.311Z,56.90
2023-07-30T10:11:09.846Z,57.30
2023-07-30T10:13:38.632Z,58.00
2023-07-30T10:16:14.100Z,57.50
2023-07-30T10:18:42.822Z,56.90
2023-07-30T10:21:11.516Z,57.30
2023-07-30T10:24:01.806Z,58.00
2023-07-30T10:26:35.089Z,58.70
2023-07-30T10:29:14.875Z,56.10
2023-07-30T10:31:43.220Z,55.40
2023-07-30T10:34:11.817Z,54.40
2023-07-30T10:36:51.726Z,53.50
2023-07-30T10:39:19.566Z,54.40
2023-07-30T10:41:49.650Z,54.00
2023-07-30T10:44:27.419Z,53.60
2023-07-30T10:46:56.431Z,53.70
2023-07-30T10:49:23.630Z,52.30
2023-07-30T10:51:54.139Z,50.60
2023-07-30T10:54:21.704Z,48.80
2023-07-30T10:56:48.631Z,48.90
2023-07-30T10:59:17.298Z,46.70
2023-07-30T11:01:47.319Z,46.70
2023-07-30T11:04:24.827Z,47.50
2023-07-30T11:06:52.663Z,47.30
2023-07-30T11:09:24.125Z,46.50
2023-07-30T11:11:52.995Z,46.80
2023-07-30T11:14:21.804Z,47.80
2023-07-30T11:16:54.437Z,46.50
2023-07-30T11:19:23.636Z,46.50
2023-07-30T11:21:54.721Z,46.00
2023-07-30T11:24:25.888Z,45.80
2023-07-30T11:27:00.656Z,47.00
2023-07-30T11:29:28.066Z,48.00
2023-07-30T11:31:59.126Z,47.10
2023-07-30T11:34:28.085Z,47.60
2023-07-30T11:36:56.313Z,48.80
2023-07-30T11:39:25.508Z,48.00
2023-07-30T11:41:52.881Z,48.20
2023-07-30T11:44:39.604Z,48.60
2023-07-30T11:47:12.466Z,49.50
2023-07-30T11:49:39.423Z,48.40
2023-07-30T11:52:08.755Z,48.90
2023-07-30T11:54:35.834Z,49.90
2023-07-30T11:57:02.823Z,49.70
2023-07-30T11:59:32.308Z,50.50
2023-07-30T12:01:59.730Z,50.40
2023-07-30T12:04:31.212Z,50.60
2023-07-30T12:06:58.319Z,52.40
2023-07-30T12:09:28.876Z,51.70
2023-07-30T12:12:03.206Z,52.70
2023-07-30T12:14:44.986Z,53.00
2023-07-30T12:17:12.149Z,55.90
2023-07-30T12:19:39.150Z,54.10
2023-07-30T12:22:06.200Z,52.90
2023-07-30T12:24:33.352Z,53.00
2023-07-30T12:27:01.306Z,52.50
2023-07-30T12:29:29.065Z,52.20
2023-07-30T12:31:57.756Z,51.30
2023-07-30T12:34:25.734Z,51.00
2023-07-30T12:36:52.801Z,50.90
2023-07-30T12:39:19.813Z,50.20
2023-07-30T12:41:46.795Z,50.60
2023-07-30T12:44:13.816Z,51.00
2023-07-30T12:46:41.170Z,51.60
2023-07-30T12:49:08.228Z,50.00
2023-07-30T12:51:35.354Z,49.20
2023-07-30T12:54:02.627Z,49.10
2023-07-30T12:56:29.566Z,49.10
2023-07-30T12:58:56.747Z,49.30
2023-07-30T13:01:24.970Z,49.30
2023-07-30T13:03:53.146Z,48.40
2023-07-30T13:06:21.286Z,49.80
2023-07-30T13:08:48.687Z,48.50
2023-07-30T13:11:15.701Z,47.20
2023-07-30T13:13:42.696Z,45.90
2023-07-30T13:16:09.682Z,47.20
2023-07-30T13:18:36.525Z,46.30
2023-07-30T13:21:05.285Z,47.00
2023-07-30T13:23:33.124Z,47.20
2023-07-30T13:26:00.688Z,46.80
2023-07-30T13:28:28.170Z,46.40
2023-07-30T13:30:55.660Z,46.40
2023-07-30T13:33:22.912Z,47.40
2023-07-30T13:35:50.684Z,46.30
2023-07-30T13:38:18.116Z,47.20
2023-07-30T13:40:44.964Z,45.50
2023-07-30T13:43:12.067Z,44.20
2023-07-30T13:45:39.298Z,44.00
2023-07-30T13:48:06.362Z,43.50
2023-07-30T13:50:33.382Z,45.50
2023-07-30T13:53:00.453Z,44.60
2023-07-30T13:55:27.574Z,43.30
2023-07-30T13:57:54.505Z,43.60
2023-07-30T14:00:21.562Z,44.00
2023-07-30T14:02:49.148Z,43.00
2023-07-30T14:05:16.199Z,43.00
2023-07-30T14:07:43.322Z,44.90
2023-07-30T14:10:10.896Z,44.70
2023-07-30T14:12:37.876Z,43.30
2023-07-30T14:15:05.748Z,42.50
2023-07-30T14:17:32.717Z,42.10
2023-07-30T14:19:59.604Z,42.50
2023-07-30T14:22:26.587Z,43.90
2023-07-30T14:24:53.728Z,44.30
2023-07-30T14:27:20.836Z,45.10
2023-07-30T14:29:47.836Z,46.10
2023-07-30T14:32:14.912Z,45.50
2023-07-30T14:34:41.897Z,45.90
2023-07-30T14:37:10.383Z,46.30
2023-07-30T14:39:37.593Z,45.50
2023-07-30T14:42:04.786Z,46.30
2023-07-30T14:44:32.049Z,46.30
2023-07-30T14:46:59.615Z,46.30
2023-07-30T14:49:27.213Z,46.60
2023-07-30T14:51:54.154Z,47.20
2023-07-30T14:54:21.290Z,46.90
2023-07-30T14:56:48.227Z,47.20
2023-07-30T14:59:15.139Z,47.40
2023-07-30T15:01:42.134Z,48.00
2023-07-30T15:04:09.164Z,48.40
2023-07-30T15:06:37.023Z,48.60
2023-07-30T15:09:04.412Z,48.90
2023-07-30T15:11:31.400Z,50.10
2023-07-30T15:13:58.292Z,48.40
2023-07-30T15:16:25.487Z,47.80
2023-07-30T15:18:52.574Z,47.20
2023-07-30T15:21:19.653Z,46.90
2023-07-30T15:23:47.050Z,47.00
2023-07-30T15:26:14.133Z,46.80
2023-07-30T15:28:41.925Z,46.90
2023-07-30T15:31:09.124Z,47.40
2023-07-30T15:33:36.960Z,47.70
2023-07-30T15:36:04.340Z,48.50
2023-07-30T15:38:31.491Z,49.60
2023-07-30T15:40:59.147Z,49.50
2023-07-30T15:43:26.489Z,50.20
2023-07-30T15:45:54.850Z,50.40
2023-07-30T15:48:22.477Z,50.40
2023-07-30T15:50:49.782Z,50.20
2023-07-30T15:53:16.747Z,50.90
2023-07-30T15:55:45.320Z,52.00
2023-07-30T15:58:12.441Z,51.70
2023-07-30T16:00:39.357Z,50.90
2023-07-30T16:03:08.011Z,50.60
2023-07-30T16:05:35.231Z,50.90
2023-07-30T16:08:02.223Z,50.90
2023-07-30T16:10:29.190Z,51.30
2023-07-30T16:12:57.322Z,52.00
2023-07-30T16:15:28.886Z,51.60
2023-07-30T16:17:56.007Z,52.60
2023-07-30T16:20:24.186Z,52.00
2023-07-30T16:22:51.397Z,51.80
2023-07-30T16:25:18.534Z,52.00
2023-07-30T16:27:45.699Z,52.50
2023-07-30T16:30:12.783Z,53.30
2023-07-30T16:32:39.848Z,54.00
2023-07-30T16:35:07.397Z,54.70
2023-07-30T16:37:34.400Z,55.00
2023-07-30T16:40:01.335Z,55.60
2023-07-30T16:42:28.303Z,55.90
2023-07-30T16:44:55.654Z,57.10
2023-07-30T16:47:22.864Z,57.60
2023-07-30T16:49:50.752Z,57.90
2023-07-30T16:52:18.002Z,57.90
2023-07-30T16:54:45.288Z,58.40
2023-07-30T16:57:12.359Z,58.70
2023-07-30T16:59:41.841Z,58.90
2023-07-30T17:02:08.779Z,59.10
2023-07-30T17:04:35.805Z,59.60
2023-07-30T17:07:02.939Z,60.00
2023-07-30T17:09:29.984Z,60.30
2023-07-30T17:11:56.950Z,61.00
2023-07-30T17:14:23.970Z,61.40
2023-07-30T17:16:51.203Z,61.50
2023-07-30T17:19:18.194Z,61.80
2023-07-30T17:21:45.103Z,62.10
2023-07-30T17:24:12.175Z,62.60
2023-07-30T17:26:39.366Z,62.70
2023-07-30T17:29:06.498Z,62.60
2023-07-30T17:31:33.523Z,63.10
2023-07-30T17:34:01.069Z,63.80
2023-07-30T17:36:28.227Z,64.20
2023-07-30T17:38:55.726Z,64.40
2023-07-30T17:41:23.089Z,64.70
2023-07-30T17:43:50.261Z,65.20
2023-07-30T17:46:19.488Z,65.30
2023-07-30T17:48:46.682Z,65.50
2023-07-30T17:51:17.896Z,65.80
2023-07-30T17:53:45.641Z,67.10
2023-07-30T17:56:12.953Z,66.70
2023-07-30T17:58:40.073Z,66.70
2023-07-30T18:01:07.893Z,66.80
2023-07-30T18:03:36.638Z,67.90
2023-07-30T18:06:04.421Z,67.30
2023-07-30T18:08:31.772Z,67.50
2023-07-30T18:10:58.882Z,67.70
2023-07-30T18:13:26.105Z,67.80
2023-07-30T18:15:53.081Z,68.10
2023-07-30T18:18:21.542Z,69.20
2023-07-30T18:20:48.549Z,69.00
2023-07-30T18:23:15.543Z,69.20
2023-07-30T18:25:42.713Z,69.60
2023-07-30T18:28:09.845Z,70.20
2023-07-30T18:30:39.393Z,70.60
2023-07-30T18:33:10.317Z,70.70
2023-07-30T18:35:38.325Z,71.20
2023-07-30T18:38:05.538Z,71.50
2023-07-30T18:40:36.948Z,72.60
2023-07-30T18:43:05.069Z,72.20
2023-07-30T18:45:34.200Z,72.40
2023-07-30T18:48:01.856Z,72.70
2023-07-30T18:50:31.605Z,72.90
2023-07-30T18:52:58.887Z,73.40
2023-07-30T18:55:25.827Z,73.70
2023-07-30T18:57:52.926Z,73.80
2023-07-30T19:00:19.872Z,74.00
2023-07-30T19:02:47.114Z,74.30
2023-07-30T19:05:14.323Z,74.60
2023-07-30T19:07:41.379Z,74.90
2023-07-30T19:10:08.747Z,75.20
2023-07-30T19:12:35.773Z,75.30
2023-07-30T19:15:03.770Z,75.40
2023-07-30T19:17:31.398Z,75.60
2023-07-30T19:19:58.902Z,75.90
2023-07-30T19:22:25.892Z,76.10
2023-07-30T19:24:52.949Z,76.30
2023-07-30T19:27:19.984Z,76.60
2023-07-30T19:29:46.988Z,76.70
2023-07-30T19:32:14.883Z,76.90
2023-07-30T19:34:41.948Z,77.20
2023-07-30T19:37:09.149Z,77.40
2023-07-30T19:39:36.678Z,77.40
2023-07-30T19:42:04.128Z,77.60
2023-07-30T19:44:31.101Z,77.60
2023-07-30T19:46:58.282Z,77.40
2023-07-30T19:49:26.019Z,77.60
2023-07-30T19:51:53.637Z,77.70
2023-07-30T19:54:20.598Z,77.90
2023-07-30T19:56:47.795Z,78.10
2023-07-30T19:59:14.841Z,78.00
2023-07-30T20:01:42.393Z,77.90
2023-07-30T20:04:09.273Z,78.10
2023-07-30T20:06:37.198Z,78.10
2023-07-30T20:09:04.604Z,77.90
2023-07-30T20:11:31.778Z,77.80
2023-07-30T20:13:58.895Z,77.60
2023-07-30T20:16:26.059Z,77.50
2023-07-30T20:18:52.991Z,77.60
2023-07-30T20:21:25.374Z,77.70
2023-07-30T20:23:52.600Z,77.60
2023-07-30T20:26:19.825Z,77.60
2023-07-30T20:28:56.987Z,77.60
2023-07-30T20:31:23.989Z,77.70
2023-07-30T20:33:51.177Z,77.90
2023-07-30T20:36:22.167Z,78.00
2023-07-30T20:38:50.053Z,77.70
2023-07-30T20:41:17.111Z,77.70
2023-07-30T20:43:44.218Z,77.90
2023-07-30T20:46:12.511Z,77.70
2023-07-30T20:48:41.921Z,77.80
2023-07-30T20:51:10.143Z,77.80
2023-07-30T20:53:37.156Z,77.80
2023-07-30T20:56:04.550Z,77.50
2023-07-30T20:58:31.675Z,77.60
2023-07-30T21:00:58.965Z,77.20
2023-07-30T21:03:26.284Z,76.80
2023-07-30T21:05:53.333Z,76.60
2023-07-30T21:08:20.236Z,77.30
2023-07-30T21:10:47.356Z,76.40
2023-07-30T21:13:14.319Z,76.80
2023-07-30T21:15:42.297Z,77.00
2023-07-30T21:18:09.239Z,76.90
2023-07-30T21:20:37.850Z,76.60
2023-07-30T21:23:05.233Z,76.40
2023-07-30T21:25:33.727Z,76.30
2023-07-30T21:28:00.812Z,76.80
2023-07-30T21:30:30.235Z,77.10
2023-07-30T21:32:59.505Z,77.20
2023-07-30T21:35:26.618Z,77.30
2023-07-30T21:37:53.860Z,77.20
2023-07-30T21:40:20.969Z,77.20
2023-07-30T21:42:48.241Z,77.40
2023-07-30T21:45:15.302Z,77.70
2023-07-30T21:47:42.240Z,77.90
2023-07-30T21:50:09.801Z,78.10
2023-07-30T21:52:38.593Z,78.30
2023-07-30T21:55:06.091Z,78.90
2023-07-30T21:57:33.254Z,78.80
2023-07-30T22:00:00.187Z,78.90
2023-07-30T22:02:27.462Z,78.90
2023-07-30T22:04:54.750Z,79.00
2023-07-30T22:07:21.669Z,79.10
2023-07-30T22:09:48.669Z,79.30
2023-07-30T22:12:15.693Z,79.40
2023-07-30T22:14:42.832Z,79.40
2023-07-30T22:17:09.825Z,79.20
2023-07-30T22:19:36.966Z,79.40
2023-07-30T22:22:04.875Z,79.60
2023-07-30T22:24:31.829Z,80.00
2023-07-30T22:26:58.697Z,80.20
2023-07-30T22:29:25.604Z,80.40
2023-07-30T22:31:52.600Z,80.60
2023-07-30T22:34:19.748Z,80.80
2023-07-30T22:36:46.894Z,80.90
2023-07-30T22:39:13.794Z,81.10
2023-07-30T22:41:40.940Z,81.30
2023-07-30T22:44:07.994Z,81.50
2023-07-30T22:46:35.230Z,81.90
2023-07-30T22:49:02.616Z,82.10
2023-07-30T22:51:29.532Z,82.10
2023-07-30T22:53:56.561Z,82.20
2023-07-30T22:56:23.900Z,82.10
2023-07-30T22:58:50.930Z,81.90
2023-07-30T23:01:18.378Z,82.00
2023-07-30T23:03:45.708Z,82.00
2023-07-30T23:06:12.783Z,82.20
2023-07-30T23:08:41.005Z,81.90
2023-07-30T23:11:09.441Z,81.80
2023-07-30T23:13:36.436Z,81.60
2023-07-30T23:16:03.679Z,81.50
2023-07-30T23:18:32.803Z,81.20
2023-07-30T23:20:59.949Z,81.00
2023-07-30T23:23:26.832Z,81.00
2023-07-30T23:25:53.950Z,80.90
2023-07-30T23:28:21.767Z,81.00
2023-07-30T23:30:48.849Z,81.10
2023-07-30T23:33:16.411Z,81.00
2023-07-30T23:35:43.638Z,80.90
2023-07-30T23:38:10.555Z,80.90
2023-07-30T23:40:37.799Z,80.90
2023-07-30T23:43:06.899Z,81.00
2023-07-30T23:45:34.468Z,81.10
2023-07-30T23:48:01.705Z,81.30
2023-07-30T23:50:28.669Z,81.60
2023-07-30T23:52:55.667Z,82.00
2023-07-30T23:55:22.934Z,82.20
2023-07-30T23:57:50.001Z,82.40
